sensor_id;sensor_type;location;lat;lon;timestamp;P1;durP1;ratioP1;P2;durP2;ratioP2
31966;SDS011;18496;52.042;6.812;2022-08-19T00:01:56;12.77;;;6.70;;
31966;SDS011;18496;52.042;6.812;2022-08-19T00:04:02;8.02;;;6.03;;
31966;SDS011;18496;52.042;6.812;2022-08-19T00:06:07;12.00;;;6.63;;
31966;SDS011;18496;52.042;6.812;2022-08-19T00:08:10;9.73;;;6.35;;
31966;SDS011;18496;52.042;6.812;2022-08-19T00:10:15;12.07;;;6.88;;
31966;SDS011;18496;52.042;6.812;2022-08-19T00:12:20;9.63;;;6.70;;
31966;SDS011;18496;52.042;6.812;2022-08-19T00:14:24;9.60;;;7.38;;
31966;SDS011;18496;52.042;6.812;2022-08-19T00:16:29;9.65;;;6.78;;
31966;SDS011;18496;52.042;6.812;2022-08-19T00:18:33;9.35;;;7.35;;
31966;SDS011;18496;52.042;6.812;2022-08-19T00:20:37;12.50;;;7.43;;
31966;SDS011;18496;52.042;6.812;2022-08-19T00:22:44;9.23;;;6.70;;
31966;SDS011;18496;52.042;6.812;2022-08-19T00:24:48;11.80;;;7.00;;
31966;SDS011;18496;52.042;6.812;2022-08-19T00:26:52;10.75;;;6.75;;
31966;SDS011;18496;52.042;6.812;2022-08-19T00:28:55;10.50;;;6.97;;
31966;SDS011;18496;52.042;6.812;2022-08-19T00:30:59;11.95;;;6.97;;
31966;SDS011;18496;52.042;6.812;2022-08-19T00:33:04;10.30;;;7.20;;
31966;SDS011;18496;52.042;6.812;2022-08-19T00:35:08;14.00;;;7.28;;
31966;SDS011;18496;52.042;6.812;2022-08-19T00:37:12;9.32;;;7.45;;
31966;SDS011;18496;52.042;6.812;2022-08-19T00:39:16;11.88;;;6.93;;
31966;SDS011;18496;52.042;6.812;2022-08-19T00:41:20;8.40;;;6.50;;
31966;SDS011;18496;52.042;6.812;2022-08-19T00:43:26;11.23;;;7.10;;
31966;SDS011;18496;52.042;6.812;2022-08-19T00:45:30;10.88;;;6.93;;
31966;SDS011;18496;52.042;6.812;2022-08-19T00:47:35;9.75;;;6.63;;
31966;SDS011;18496;52.042;6.812;2022-08-19T00:49:47;12.63;;;7.10;;
31966;SDS011;18496;52.042;6.812;2022-08-19T00:51:58;9.75;;;7.07;;
31966;SDS011;18496;52.042;6.812;2022-08-19T00:54:06;10.55;;;7.35;;
31966;SDS011;18496;52.042;6.812;2022-08-19T00:56:09;9.10;;;7.00;;
31966;SDS011;18496;52.042;6.812;2022-08-19T00:58:15;9.00;;;6.93;;
31966;SDS011;18496;52.042;6.812;2022-08-19T01:00:22;21.33;;;7.38;;
31966;SDS011;18496;52.042;6.812;2022-08-19T01:02:28;8.68;;;6.50;;
31966;SDS011;18496;52.042;6.812;2022-08-19T01:04:33;11.85;;;7.03;;
31966;SDS011;18496;52.042;6.812;2022-08-19T01:06:37;9.45;;;7.18;;
31966;SDS011;18496;52.042;6.812;2022-08-19T01:08:43;10.00;;;7.30;;
31966;SDS011;18496;52.042;6.812;2022-08-19T01:10:55;11.23;;;7.00;;
31966;SDS011;18496;52.042;6.812;2022-08-19T01:13:01;12.68;;;7.68;;
31966;SDS011;18496;52.042;6.812;2022-08-19T01:15:07;10.40;;;7.35;;
31966;SDS011;18496;52.042;6.812;2022-08-19T01:17:13;12.00;;;7.95;;
31966;SDS011;18496;52.042;6.812;2022-08-19T01:19:21;10.18;;;7.40;;
31966;SDS011;18496;52.042;6.812;2022-08-19T01:21:34;12.30;;;8.38;;
31966;SDS011;18496;52.042;6.812;2022-08-19T01:23:43;14.48;;;7.50;;
31966;SDS011;18496;52.042;6.812;2022-08-19T01:25:48;13.00;;;7.82;;
31966;SDS011;18496;52.042;6.812;2022-08-19T01:27:54;11.95;;;7.45;;
31966;SDS011;18496;52.042;6.812;2022-08-19T01:29:58;13.55;;;8.05;;
31966;SDS011;18496;52.042;6.812;2022-08-19T01:32:02;11.73;;;8.07;;
31966;SDS011;18496;52.042;6.812;2022-08-19T01:34:06;12.30;;;7.70;;
31966;SDS011;18496;52.042;6.812;2022-08-19T01:36:11;16.27;;;8.25;;
31966;SDS011;18496;52.042;6.812;2022-08-19T01:38:25;11.63;;;8.05;;
31966;SDS011;18496;52.042;6.812;2022-08-19T01:40:31;11.63;;;7.55;;
31966;SDS011;18496;52.042;6.812;2022-08-19T01:42:36;13.50;;;8.38;;
31966;SDS011;18496;52.042;6.812;2022-08-19T01:44:40;12.32;;;7.97;;
31966;SDS011;18496;52.042;6.812;2022-08-19T01:46:47;10.88;;;8.13;;
31966;SDS011;18496;52.042;6.812;2022-08-19T01:48:51;12.48;;;8.38;;
31966;SDS011;18496;52.042;6.812;2022-08-19T01:50:54;16.00;;;8.48;;
31966;SDS011;18496;52.042;6.812;2022-08-19T01:52:59;14.65;;;8.57;;
31966;SDS011;18496;52.042;6.812;2022-08-19T01:55:05;11.85;;;8.23;;
31966;SDS011;18496;52.042;6.812;2022-08-19T01:57:12;12.80;;;8.25;;
31966;SDS011;18496;52.042;6.812;2022-08-19T01:59:17;14.55;;;8.93;;
31966;SDS011;18496;52.042;6.812;2022-08-19T02:01:23;13.32;;;8.18;;
31966;SDS011;18496;52.042;6.812;2022-08-19T02:03:27;13.95;;;8.23;;
31966;SDS011;18496;52.042;6.812;2022-08-19T02:05:32;15.07;;;8.60;;
31966;SDS011;18496;52.042;6.812;2022-08-19T02:07:35;13.10;;;8.80;;
31966;SDS011;18496;52.042;6.812;2022-08-19T02:09:40;12.77;;;8.20;;
31966;SDS011;18496;52.042;6.812;2022-08-19T02:11:44;14.07;;;8.82;;
31966;SDS011;18496;52.042;6.812;2022-08-19T02:13:48;14.82;;;8.88;;
31966;SDS011;18496;52.042;6.812;2022-08-19T02:15:52;13.45;;;8.88;;
31966;SDS011;18496;52.042;6.812;2022-08-19T02:17:56;15.15;;;9.25;;
31966;SDS011;18496;52.042;6.812;2022-08-19T02:19:59;12.23;;;8.95;;
31966;SDS011;18496;52.042;6.812;2022-08-19T02:22:04;17.58;;;9.80;;
31966;SDS011;18496;52.042;6.812;2022-08-19T02:24:08;11.68;;;7.97;;
31966;SDS011;18496;52.042;6.812;2022-08-19T02:26:12;11.07;;;8.15;;
31966;SDS011;18496;52.042;6.812;2022-08-19T02:28:16;14.50;;;8.80;;
31966;SDS011;18496;52.042;6.812;2022-08-19T02:30:20;13.77;;;9.32;;
31966;SDS011;18496;52.042;6.812;2022-08-19T02:32:24;11.95;;;9.10;;
31966;SDS011;18496;52.042;6.812;2022-08-19T02:34:28;14.25;;;9.35;;
31966;SDS011;18496;52.042;6.812;2022-08-19T02:36:32;14.73;;;9.95;;
31966;SDS011;18496;52.042;6.812;2022-08-19T02:38:35;14.38;;;9.65;;
31966;SDS011;18496;52.042;6.812;2022-08-19T02:40:40;13.80;;;9.43;;
31966;SDS011;18496;52.042;6.812;2022-08-19T02:42:44;18.60;;;10.05;;
31966;SDS011;18496;52.042;6.812;2022-08-19T02:44:48;13.27;;;9.98;;
31966;SDS011;18496;52.042;6.812;2022-08-19T02:46:52;16.00;;;9.45;;
31966;SDS011;18496;52.042;6.812;2022-08-19T02:48:57;15.48;;;9.48;;
31966;SDS011;18496;52.042;6.812;2022-08-19T02:51:04;13.65;;;9.52;;
31966;SDS011;18496;52.042;6.812;2022-08-19T02:53:08;18.80;;;9.57;;
31966;SDS011;18496;52.042;6.812;2022-08-19T02:55:12;14.48;;;9.63;;
31966;SDS011;18496;52.042;6.812;2022-08-19T02:57:15;15.70;;;9.65;;
31966;SDS011;18496;52.042;6.812;2022-08-19T02:59:19;13.30;;;9.43;;
31966;SDS011;18496;52.042;6.812;2022-08-19T03:01:25;13.80;;;9.95;;
31966;SDS011;18496;52.042;6.812;2022-08-19T03:03:31;13.18;;;9.18;;
31966;SDS011;18496;52.042;6.812;2022-08-19T03:05:35;13.88;;;9.18;;
31966;SDS011;18496;52.042;6.812;2022-08-19T03:07:38;14.63;;;9.57;;
31966;SDS011;18496;52.042;6.812;2022-08-19T03:09:42;15.55;;;10.10;;
31966;SDS011;18496;52.042;6.812;2022-08-19T03:11:46;15.63;;;10.23;;
31966;SDS011;18496;52.042;6.812;2022-08-19T03:13:50;18.73;;;10.55;;
31966;SDS011;18496;52.042;6.812;2022-08-19T03:15:54;15.52;;;9.63;;
31966;SDS011;18496;52.042;6.812;2022-08-19T03:17:58;15.27;;;9.95;;
31966;SDS011;18496;52.042;6.812;2022-08-19T03:20:02;16.55;;;11.43;;
31966;SDS011;18496;52.042;6.812;2022-08-19T03:22:07;12.15;;;9.27;;
31966;SDS011;18496;52.042;6.812;2022-08-19T03:24:11;15.07;;;10.43;;
31966;SDS011;18496;52.042;6.812;2022-08-19T03:26:16;12.73;;;9.63;;
31966;SDS011;18496;52.042;6.812;2022-08-19T03:28:20;16.27;;;10.15;;
31966;SDS011;18496;52.042;6.812;2022-08-19T03:30:24;16.17;;;11.02;;
31966;SDS011;18496;52.042;6.812;2022-08-19T03:32:28;16.88;;;10.18;;
31966;SDS011;18496;52.042;6.812;2022-08-19T03:34:32;14.77;;;9.38;;
31966;SDS011;18496;52.042;6.812;2022-08-19T03:36:37;14.32;;;10.05;;
31966;SDS011;18496;52.042;6.812;2022-08-19T03:38:42;12.75;;;10.05;;
31966;SDS011;18496;52.042;6.812;2022-08-19T03:40:51;14.50;;;10.38;;
31966;SDS011;18496;52.042;6.812;2022-08-19T03:42:55;15.30;;;9.77;;
31966;SDS011;18496;52.042;6.812;2022-08-19T03:44:58;15.15;;;10.20;;
31966;SDS011;18496;52.042;6.812;2022-08-19T03:47:02;19.75;;;10.57;;
31966;SDS011;18496;52.042;6.812;2022-08-19T03:49:06;15.68;;;10.85;;
31966;SDS011;18496;52.042;6.812;2022-08-19T03:51:15;17.70;;;10.50;;
31966;SDS011;18496;52.042;6.812;2022-08-19T03:53:43;17.38;;;10.30;;
31966;SDS011;18496;52.042;6.812;2022-08-19T03:55:46;12.95;;;9.82;;
31966;SDS011;18496;52.042;6.812;2022-08-19T03:57:50;23.45;;;10.35;;
31966;SDS011;18496;52.042;6.812;2022-08-19T03:59:54;14.70;;;10.40;;
31966;SDS011;18496;52.042;6.812;2022-08-19T04:01:59;16.08;;;9.95;;
31966;SDS011;18496;52.042;6.812;2022-08-19T04:04:04;17.55;;;10.95;;
31966;SDS011;18496;52.042;6.812;2022-08-19T04:06:18;13.70;;;9.80;;
31966;SDS011;18496;52.042;6.812;2022-08-19T04:08:24;14.90;;;9.80;;
31966;SDS011;18496;52.042;6.812;2022-08-19T04:10:28;15.20;;;10.75;;
31966;SDS011;18496;52.042;6.812;2022-08-19T04:12:32;15.52;;;10.85;;
31966;SDS011;18496;52.042;6.812;2022-08-19T04:14:35;15.45;;;10.30;;
31966;SDS011;18496;52.042;6.812;2022-08-19T04:16:39;15.70;;;10.93;;
31966;SDS011;18496;52.042;6.812;2022-08-19T04:18:43;20.63;;;11.18;;
31966;SDS011;18496;52.042;6.812;2022-08-19T04:20:47;17.15;;;10.10;;
31966;SDS011;18496;52.042;6.812;2022-08-19T04:22:51;17.00;;;11.20;;
31966;SDS011;18496;52.042;6.812;2022-08-19T04:24:55;17.30;;;10.73;;
31966;SDS011;18496;52.042;6.812;2022-08-19T04:26:59;17.52;;;11.63;;
31966;SDS011;18496;52.042;6.812;2022-08-19T04:29:05;15.15;;;11.13;;
31966;SDS011;18496;52.042;6.812;2022-08-19T04:31:18;19.67;;;9.80;;
31966;SDS011;18496;52.042;6.812;2022-08-19T04:33:24;16.73;;;10.43;;
31966;SDS011;18496;52.042;6.812;2022-08-19T04:35:28;18.85;;;9.95;;
31966;SDS011;18496;52.042;6.812;2022-08-19T04:37:38;17.65;;;10.18;;
31966;SDS011;18496;52.042;6.812;2022-08-19T04:39:41;14.30;;;10.27;;
31966;SDS011;18496;52.042;6.812;2022-08-19T04:42:04;14.80;;;10.27;;
31966;SDS011;18496;52.042;6.812;2022-08-19T04:44:26;17.83;;;10.40;;
31966;SDS011;18496;52.042;6.812;2022-08-19T04:46:33;17.27;;;11.52;;
31966;SDS011;18496;52.042;6.812;2022-08-19T04:48:38;16.75;;;10.65;;
31966;SDS011;18496;52.042;6.812;2022-08-19T04:50:42;14.52;;;11.15;;
31966;SDS011;18496;52.042;6.812;2022-08-19T04:52:46;15.27;;;11.23;;
31966;SDS011;18496;52.042;6.812;2022-08-19T04:54:52;16.02;;;10.90;;
31966;SDS011;18496;52.042;6.812;2022-08-19T04:56:58;19.65;;;11.40;;
31966;SDS011;18496;52.042;6.812;2022-08-19T04:59:01;19.63;;;10.95;;
31966;SDS011;18496;52.042;6.812;2022-08-19T05:01:12;15.70;;;10.55;;
31966;SDS011;18496;52.042;6.812;2022-08-19T05:03:17;17.50;;;10.30;;
31966;SDS011;18496;52.042;6.812;2022-08-19T05:05:21;19.67;;;10.77;;
31966;SDS011;18496;52.042;6.812;2022-08-19T05:07:25;14.18;;;10.15;;
31966;SDS011;18496;52.042;6.812;2022-08-19T05:09:30;17.55;;;10.80;;
31966;SDS011;18496;52.042;6.812;2022-08-19T05:11:35;18.90;;;11.45;;
31966;SDS011;18496;52.042;6.812;2022-08-19T05:13:43;16.67;;;11.13;;
31966;SDS011;18496;52.042;6.812;2022-08-19T05:15:57;18.38;;;10.60;;
31966;SDS011;18496;52.042;6.812;2022-08-19T05:18:02;25.45;;;10.68;;
31966;SDS011;18496;52.042;6.812;2022-08-19T05:20:26;20.48;;;10.95;;
31966;SDS011;18496;52.042;6.812;2022-08-19T05:22:48;19.58;;;10.90;;
31966;SDS011;18496;52.042;6.812;2022-08-19T05:24:52;19.00;;;10.57;;
31966;SDS011;18496;52.042;6.812;2022-08-19T05:26:55;17.42;;;11.00;;
31966;SDS011;18496;52.042;6.812;2022-08-19T05:29:00;17.83;;;11.23;;
31966;SDS011;18496;52.042;6.812;2022-08-19T05:31:03;18.52;;;11.30;;
31966;SDS011;18496;52.042;6.812;2022-08-19T05:33:07;18.48;;;11.95;;
31966;SDS011;18496;52.042;6.812;2022-08-19T05:35:12;20.30;;;12.52;;
31966;SDS011;18496;52.042;6.812;2022-08-19T05:37:15;17.98;;;11.70;;
31966;SDS011;18496;52.042;6.812;2022-08-19T05:39:20;17.83;;;12.15;;
31966;SDS011;18496;52.042;6.812;2022-08-19T05:41:23;23.70;;;12.27;;
31966;SDS011;18496;52.042;6.812;2022-08-19T05:43:32;20.17;;;12.88;;
31966;SDS011;18496;52.042;6.812;2022-08-19T05:45:39;20.80;;;11.40;;
31966;SDS011;18496;52.042;6.812;2022-08-19T05:47:45;26.45;;;14.32;;
31966;SDS011;18496;52.042;6.812;2022-08-19T05:49:48;26.63;;;15.00;;
31966;SDS011;18496;52.042;6.812;2022-08-19T05:51:55;21.50;;;13.15;;
31966;SDS011;18496;52.042;6.812;2022-08-19T05:53:59;23.05;;;12.55;;
31966;SDS011;18496;52.042;6.812;2022-08-19T05:56:04;24.85;;;13.77;;
31966;SDS011;18496;52.042;6.812;2022-08-19T05:58:12;26.13;;;13.70;;
31966;SDS011;18496;52.042;6.812;2022-08-19T06:00:16;24.95;;;14.52;;
31966;SDS011;18496;52.042;6.812;2022-08-19T06:02:20;23.60;;;13.65;;
31966;SDS011;18496;52.042;6.812;2022-08-19T06:04:23;20.50;;;14.38;;
31966;SDS011;18496;52.042;6.812;2022-08-19T06:06:28;26.08;;;12.98;;
31966;SDS011;18496;52.042;6.812;2022-08-19T06:08:35;23.10;;;14.68;;
31966;SDS011;18496;52.042;6.812;2022-08-19T06:10:40;28.63;;;14.05;;
31966;SDS011;18496;52.042;6.812;2022-08-19T06:12:43;24.08;;;15.95;;
31966;SDS011;18496;52.042;6.812;2022-08-19T06:14:47;23.60;;;15.85;;
31966;SDS011;18496;52.042;6.812;2022-08-19T06:16:53;29.25;;;16.25;;
31966;SDS011;18496;52.042;6.812;2022-08-19T06:18:59;23.88;;;14.43;;
31966;SDS011;18496;52.042;6.812;2022-08-19T06:21:03;28.83;;;16.27;;
31966;SDS011;18496;52.042;6.812;2022-08-19T06:23:07;24.95;;;16.60;;
31966;SDS011;18496;52.042;6.812;2022-08-19T06:25:12;24.75;;;16.27;;
31966;SDS011;18496;52.042;6.812;2022-08-19T06:27:17;21.20;;;12.88;;
31966;SDS011;18496;52.042;6.812;2022-08-19T06:29:23;25.05;;;15.63;;
31966;SDS011;18496;52.042;6.812;2022-08-19T06:31:28;24.05;;;14.20;;
31966;SDS011;18496;52.042;6.812;2022-08-19T06:33:36;28.42;;;14.38;;
31966;SDS011;18496;52.042;6.812;2022-08-19T06:35:40;21.90;;;14.00;;
31966;SDS011;18496;52.042;6.812;2022-08-19T06:37:44;19.85;;;13.68;;
31966;SDS011;18496;52.042;6.812;2022-08-19T06:39:48;24.05;;;14.40;;
31966;SDS011;18496;52.042;6.812;2022-08-19T06:41:53;23.08;;;14.85;;
31966;SDS011;18496;52.042;6.812;2022-08-19T06:43:59;21.60;;;13.90;;
31966;SDS011;18496;52.042;6.812;2022-08-19T06:46:03;21.65;;;13.63;;
31966;SDS011;18496;52.042;6.812;2022-08-19T06:48:13;25.50;;;14.80;;
31966;SDS011;18496;52.042;6.812;2022-08-19T06:50:17;24.67;;;14.93;;
31966;SDS011;18496;52.042;6.812;2022-08-19T06:52:21;31.98;;;14.85;;
31966;SDS011;18496;52.042;6.812;2022-08-19T06:54:26;24.10;;;14.75;;
31966;SDS011;18496;52.042;6.812;2022-08-19T06:56:32;28.73;;;14.98;;
31966;SDS011;18496;52.042;6.812;2022-08-19T06:58:38;24.20;;;15.13;;
31966;SDS011;18496;52.042;6.812;2022-08-19T07:00:42;24.15;;;15.07;;
31966;SDS011;18496;52.042;6.812;2022-08-19T07:02:46;23.05;;;14.73;;
31966;SDS011;18496;52.042;6.812;2022-08-19T07:04:50;24.42;;;14.55;;
31966;SDS011;18496;52.042;6.812;2022-08-19T07:07:01;26.80;;;14.00;;
31966;SDS011;18496;52.042;6.812;2022-08-19T07:09:10;21.35;;;14.45;;
31966;SDS011;18496;52.042;6.812;2022-08-19T07:11:16;25.65;;;14.60;;
31966;SDS011;18496;52.042;6.812;2022-08-19T07:13:21;25.23;;;15.07;;
31966;SDS011;18496;52.042;6.812;2022-08-19T07:15:25;22.95;;;13.85;;
31966;SDS011;18496;52.042;6.812;2022-08-19T07:17:30;25.63;;;15.02;;
31966;SDS011;18496;52.042;6.812;2022-08-19T07:19:34;23.23;;;14.60;;
31966;SDS011;18496;52.042;6.812;2022-08-19T07:21:39;19.40;;;12.95;;
31966;SDS011;18496;52.042;6.812;2022-08-19T07:23:43;21.60;;;14.15;;
31966;SDS011;18496;52.042;6.812;2022-08-19T07:25:47;23.33;;;14.00;;
31966;SDS011;18496;52.042;6.812;2022-08-19T07:27:51;24.95;;;14.68;;
31966;SDS011;18496;52.042;6.812;2022-08-19T07:29:54;24.08;;;15.18;;
31966;SDS011;18496;52.042;6.812;2022-08-19T07:31:58;23.27;;;15.00;;
31966;SDS011;18496;52.042;6.812;2022-08-19T07:34:07;26.27;;;16.17;;
31966;SDS011;18496;52.042;6.812;2022-08-19T07:36:14;22.40;;;14.87;;
31966;SDS011;18496;52.042;6.812;2022-08-19T07:38:19;24.23;;;14.82;;
31966;SDS011;18496;52.042;6.812;2022-08-19T07:40:23;23.60;;;16.08;;
31966;SDS011;18496;52.042;6.812;2022-08-19T07:42:27;24.92;;;14.98;;
31966;SDS011;18496;52.042;6.812;2022-08-19T07:44:32;25.13;;;14.98;;
31966;SDS011;18496;52.042;6.812;2022-08-19T07:46:38;25.55;;;14.57;;
31966;SDS011;18496;52.042;6.812;2022-08-19T07:48:44;25.10;;;15.32;;
31966;SDS011;18496;52.042;6.812;2022-08-19T07:50:49;28.58;;;15.68;;
31966;SDS011;18496;52.042;6.812;2022-08-19T07:52:53;24.23;;;14.25;;
31966;SDS011;18496;52.042;6.812;2022-08-19T07:55:00;26.23;;;15.95;;
31966;SDS011;18496;52.042;6.812;2022-08-19T07:57:06;21.50;;;14.60;;
31966;SDS011;18496;52.042;6.812;2022-08-19T07:59:11;28.17;;;14.75;;
31966;SDS011;18496;52.042;6.812;2022-08-19T08:01:16;21.15;;;14.68;;
31966;SDS011;18496;52.042;6.812;2022-08-19T08:03:22;22.55;;;14.10;;
31966;SDS011;18496;52.042;6.812;2022-08-19T08:05:46;27.33;;;14.27;;
31966;SDS011;18496;52.042;6.812;2022-08-19T08:08:11;21.80;;;12.57;;
31966;SDS011;18496;52.042;6.812;2022-08-19T08:10:45;27.08;;;12.63;;
31966;SDS011;18496;52.042;6.812;2022-08-19T08:12:48;23.73;;;15.68;;
31966;SDS011;18496;52.042;6.812;2022-08-19T08:14:53;25.67;;;15.18;;
31966;SDS011;18496;52.042;6.812;2022-08-19T08:16:58;20.65;;;14.45;;
31966;SDS011;18496;52.042;6.812;2022-08-19T08:19:05;27.40;;;16.95;;
31966;SDS011;18496;52.042;6.812;2022-08-19T08:21:09;28.33;;;17.92;;
31966;SDS011;18496;52.042;6.812;2022-08-19T08:23:13;29.38;;;17.85;;
31966;SDS011;18496;52.042;6.812;2022-08-19T08:25:27;26.70;;;18.67;;
31966;SDS011;18496;52.042;6.812;2022-08-19T08:27:35;27.52;;;18.63;;
31966;SDS011;18496;52.042;6.812;2022-08-19T08:29:42;37.53;;;18.83;;
31966;SDS011;18496;52.042;6.812;2022-08-19T08:31:47;26.80;;;19.33;;
31966;SDS011;18496;52.042;6.812;2022-08-19T08:33:51;34.13;;;19.35;;
31966;SDS011;18496;52.042;6.812;2022-08-19T08:35:55;27.60;;;18.52;;
31966;SDS011;18496;52.042;6.812;2022-08-19T08:37:59;30.17;;;17.27;;
31966;SDS011;18496;52.042;6.812;2022-08-19T08:40:07;28.20;;;17.30;;
31966;SDS011;18496;52.042;6.812;2022-08-19T08:42:24;29.27;;;18.35;;
31966;SDS011;18496;52.042;6.812;2022-08-19T08:44:39;30.42;;;19.10;;
31966;SDS011;18496;52.042;6.812;2022-08-19T08:46:57;29.17;;;18.40;;
31966;SDS011;18496;52.042;6.812;2022-08-19T08:49:16;27.60;;;17.85;;
31966;SDS011;18496;52.042;6.812;2022-08-19T08:51:32;28.67;;;18.70;;
31966;SDS011;18496;52.042;6.812;2022-08-19T08:53:50;32.53;;;19.23;;
31966;SDS011;18496;52.042;6.812;2022-08-19T08:55:55;31.55;;;19.70;;
31966;SDS011;18496;52.042;6.812;2022-08-19T09:00:38;26.27;;;16.65;;
31966;SDS011;18496;52.042;6.812;2022-08-19T09:02:45;28.65;;;19.02;;
31966;SDS011;18496;52.042;6.812;2022-08-19T09:04:50;32.40;;;19.17;;
31966;SDS011;18496;52.042;6.812;2022-08-19T09:09:36;28.73;;;18.33;;
31966;SDS011;18496;52.042;6.812;2022-08-19T09:12:00;27.38;;;16.90;;
31966;SDS011;18496;52.042;6.812;2022-08-19T09:14:34;27.08;;;17.17;;
31966;SDS011;18496;52.042;6.812;2022-08-19T09:16:56;27.10;;;15.55;;
31966;SDS011;18496;52.042;6.812;2022-08-19T09:19:02;17.48;;;12.93;;
31966;SDS011;18496;52.042;6.812;2022-08-19T09:21:07;18.88;;;11.77;;
31966;SDS011;18496;52.042;6.812;2022-08-19T09:23:11;18.83;;;11.65;;
31966;SDS011;18496;52.042;6.812;2022-08-19T09:25:18;23.58;;;12.45;;
31966;SDS011;18496;52.042;6.812;2022-08-19T09:27:28;18.63;;;11.70;;
31966;SDS011;18496;52.042;6.812;2022-08-19T09:29:31;16.75;;;11.40;;
31966;SDS011;18496;52.042;6.812;2022-08-19T09:31:35;18.73;;;11.95;;
31966;SDS011;18496;52.042;6.812;2022-08-19T09:33:39;17.83;;;12.25;;
31966;SDS011;18496;52.042;6.812;2022-08-19T09:35:43;18.90;;;12.45;;
31966;SDS011;18496;52.042;6.812;2022-08-19T09:37:47;26.90;;;15.05;;
31966;SDS011;18496;52.042;6.812;2022-08-19T09:39:52;25.23;;;14.18;;
31966;SDS011;18496;52.042;6.812;2022-08-19T09:41:56;20.25;;;13.30;;
31966;SDS011;18496;52.042;6.812;2022-08-19T09:44:00;31.05;;;15.77;;
31966;SDS011;18496;52.042;6.812;2022-08-19T09:46:04;24.92;;;16.15;;
31966;SDS011;18496;52.042;6.812;2022-08-19T09:48:09;26.77;;;16.88;;
31966;SDS011;18496;52.042;6.812;2022-08-19T09:50:12;31.73;;;19.23;;
31966;SDS011;18496;52.042;6.812;2022-08-19T09:52:16;28.10;;;18.55;;
31966;SDS011;18496;52.042;6.812;2022-08-19T09:54:21;27.67;;;17.63;;
31966;SDS011;18496;52.042;6.812;2022-08-19T09:56:25;29.35;;;17.30;;
31966;SDS011;18496;52.042;6.812;2022-08-19T09:58:29;30.48;;;17.77;;
31966;SDS011;18496;52.042;6.812;2022-08-19T10:00:34;27.40;;;17.20;;
31966;SDS011;18496;52.042;6.812;2022-08-19T10:02:41;27.90;;;16.60;;
31966;SDS011;18496;52.042;6.812;2022-08-19T10:04:44;24.60;;;16.70;;
31966;SDS011;18496;52.042;6.812;2022-08-19T10:07:06;25.13;;;15.82;;
31966;SDS011;18496;52.042;6.812;2022-08-19T10:09:10;30.67;;;17.60;;
31966;SDS011;18496;52.042;6.812;2022-08-19T10:11:14;24.48;;;16.25;;
31966;SDS011;18496;52.042;6.812;2022-08-19T10:13:20;26.42;;;17.33;;
31966;SDS011;18496;52.042;6.812;2022-08-19T10:15:27;28.73;;;18.38;;
31966;SDS011;18496;52.042;6.812;2022-08-19T10:17:31;29.70;;;16.73;;
31966;SDS011;18496;52.042;6.812;2022-08-19T10:19:38;27.38;;;17.10;;
31966;SDS011;18496;52.042;6.812;2022-08-19T10:21:42;27.23;;;17.50;;
31966;SDS011;18496;52.042;6.812;2022-08-19T10:23:47;25.50;;;14.57;;
31966;SDS011;18496;52.042;6.812;2022-08-19T10:25:53;22.80;;;15.02;;
31966;SDS011;18496;52.042;6.812;2022-08-19T10:27:56;21.27;;;14.30;;
31966;SDS011;18496;52.042;6.812;2022-08-19T10:30:00;27.30;;;15.27;;
31966;SDS011;18496;52.042;6.812;2022-08-19T10:32:05;28.90;;;16.50;;
31966;SDS011;18496;52.042;6.812;2022-08-19T10:34:11;20.17;;;14.93;;
31966;SDS011;18496;52.042;6.812;2022-08-19T10:36:16;22.13;;;13.95;;
31966;SDS011;18496;52.042;6.812;2022-08-19T10:38:22;19.00;;;12.95;;
31966;SDS011;18496;52.042;6.812;2022-08-19T10:40:26;19.23;;;12.10;;
31966;SDS011;18496;52.042;6.812;2022-08-19T10:42:31;20.90;;;13.63;;
31966;SDS011;18496;52.042;6.812;2022-08-19T10:44:38;25.52;;;11.98;;
31966;SDS011;18496;52.042;6.812;2022-08-19T10:46:44;18.48;;;10.80;;
31966;SDS011;18496;52.042;6.812;2022-08-19T10:48:50;19.33;;;11.55;;
31966;SDS011;18496;52.042;6.812;2022-08-19T10:50:54;19.95;;;12.07;;
31966;SDS011;18496;52.042;6.812;2022-08-19T10:53:18;17.52;;;10.27;;
31966;SDS011;18496;52.042;6.812;2022-08-19T10:55:26;15.23;;;11.10;;
31966;SDS011;18496;52.042;6.812;2022-08-19T10:57:48;21.70;;;12.55;;
31966;SDS011;18496;52.042;6.812;2022-08-19T10:59:52;22.25;;;13.52;;
31966;SDS011;18496;52.042;6.812;2022-08-19T11:02:00;24.02;;;13.20;;
31966;SDS011;18496;52.042;6.812;2022-08-19T11:04:05;16.63;;;9.10;;
31966;SDS011;18496;52.042;6.812;2022-08-19T11:06:12;17.23;;;11.85;;
31966;SDS011;18496;52.042;6.812;2022-08-19T11:08:16;16.25;;;11.18;;
31966;SDS011;18496;52.042;6.812;2022-08-19T11:10:20;18.27;;;11.43;;
31966;SDS011;18496;52.042;6.812;2022-08-19T11:12:23;18.75;;;11.05;;
31966;SDS011;18496;52.042;6.812;2022-08-19T11:14:27;17.17;;;10.38;;
31966;SDS011;18496;52.042;6.812;2022-08-19T11:16:33;17.73;;;10.95;;
31966;SDS011;18496;52.042;6.812;2022-08-19T11:18:38;13.90;;;9.15;;
31966;SDS011;18496;52.042;6.812;2022-08-19T11:20:43;10.90;;;7.68;;
31966;SDS011;18496;52.042;6.812;2022-08-19T11:22:47;11.63;;;7.68;;
31966;SDS011;18496;52.042;6.812;2022-08-19T11:24:51;12.38;;;7.85;;
31966;SDS011;18496;52.042;6.812;2022-08-19T11:26:58;13.60;;;7.47;;
31966;SDS011;18496;52.042;6.812;2022-08-19T11:29:06;11.77;;;7.63;;
31966;SDS011;18496;52.042;6.812;2022-08-19T11:31:17;16.50;;;11.40;;
31966;SDS011;18496;52.042;6.812;2022-08-19T11:33:22;21.45;;;11.57;;
31966;SDS011;18496;52.042;6.812;2022-08-19T11:35:29;20.67;;;10.77;;
31966;SDS011;18496;52.042;6.812;2022-08-19T11:37:32;13.10;;;8.23;;
31966;SDS011;18496;52.042;6.812;2022-08-19T11:39:41;11.57;;;7.85;;
31966;SDS011;18496;52.042;6.812;2022-08-19T11:41:45;16.02;;;10.13;;
31966;SDS011;18496;52.042;6.812;2022-08-19T11:43:53;17.58;;;11.13;;
31966;SDS011;18496;52.042;6.812;2022-08-19T11:45:58;16.45;;;9.70;;
31966;SDS011;18496;52.042;6.812;2022-08-19T11:48:01;17.70;;;9.55;;
31966;SDS011;18496;52.042;6.812;2022-08-19T11:50:06;12.90;;;8.75;;
31966;SDS011;18496;52.042;6.812;2022-08-19T11:52:10;11.10;;;7.80;;
31966;SDS011;18496;52.042;6.812;2022-08-19T11:54:14;9.57;;;6.57;;
31966;SDS011;18496;52.042;6.812;2022-08-19T11:56:19;10.70;;;7.60;;
31966;SDS011;18496;52.042;6.812;2022-08-19T11:58:24;12.48;;;7.18;;
31966;SDS011;18496;52.042;6.812;2022-08-19T12:00:27;11.32;;;6.88;;
31966;SDS011;18496;52.042;6.812;2022-08-19T12:02:31;10.32;;;6.47;;
31966;SDS011;18496;52.042;6.812;2022-08-19T12:04:35;10.63;;;6.15;;
31966;SDS011;18496;52.042;6.812;2022-08-19T12:06:39;11.57;;;5.90;;
31966;SDS011;18496;52.042;6.812;2022-08-19T12:08:44;11.25;;;7.45;;
31966;SDS011;18496;52.042;6.812;2022-08-19T12:10:48;17.85;;;7.07;;
31966;SDS011;18496;52.042;6.812;2022-08-19T12:12:52;11.70;;;6.13;;
31966;SDS011;18496;52.042;6.812;2022-08-19T12:14:55;11.02;;;6.95;;
31966;SDS011;18496;52.042;6.812;2022-08-19T12:17:01;12.07;;;7.07;;
31966;SDS011;18496;52.042;6.812;2022-08-19T12:19:07;11.27;;;7.30;;
31966;SDS011;18496;52.042;6.812;2022-08-19T12:21:10;9.90;;;6.68;;
31966;SDS011;18496;52.042;6.812;2022-08-19T12:23:16;11.93;;;6.40;;
31966;SDS011;18496;52.042;6.812;2022-08-19T12:25:20;10.20;;;7.07;;
31966;SDS011;18496;52.042;6.812;2022-08-19T12:27:23;12.82;;;7.40;;